sensor_id;sensor_type;location;lat;lon;timestamp;pressure;altitude;pressure_sealevel;temperature;humidity
55289;BME280;41154;45.394;5.734;2023-04-12T00:02:08;96665.75;;;9.46;100.00
55289;BME280;41154;45.394;5.734;2023-04-12T00:04:33;96668.72;;;9.27;100.00
55289;BME280;41154;45.394;5.734;2023-04-12T00:07:00;96669.47;;;9.45;100.00
55289;BME280;41154;45.394;5.734;2023-04-12T00:09:29;96664.81;;;9.35;100.00
55289;BME280;41154;45.394;5.734;2023-04-12T00:11:58;96653.28;;;9.34;100.00
55289;BME280;41154;45.394;5.734;2023-04-12T00:14:24;96644.25;;;9.41;100.00
55289;BME280;41154;45.394;5.734;2023-04-12T00:16:50;96640.53;;;9.20;100.00
55289;BME280;41154;45.394;5.734;2023-04-12T00:19:16;96625.78;;;9.17;100.00
55289;BME280;41154;45.394;5.734;2023-04-12T00:21:43;96619.63;;;9.16;100.00
55289;BME280;41154;45.394;5.734;2023-04-12T00:24:09;96619.44;;;9.23;100.00
55289;BME280;41154;45.394;5.734;2023-04-12T00:26:35;96624.53;;;9.25;100.00
55289;BME280;41154;45.394;5.734;2023-04-12T00:29:00;96617.03;;;8.99;100.00
55289;BME280;41154;45.394;5.734;2023-04-12T00:31:26;96616.44;;;8.97;100.00
55289;BME280;41154;45.394;5.734;2023-04-12T00:33:52;96614.84;;;8.96;100.00
55289;BME280;41154;45.394;5.734;2023-04-12T00:36:18;96612.53;;;8.83;100.00
55289;BME280;41154;45.394;5.734;2023-04-12T00:38:44;96611.00;;;8.87;100.00
55289;BME280;41154;45.394;5.734;2023-04-12T00:41:13;96606.28;;;8.94;100.00
55289;BME280;41154;45.394;5.734;2023-04-12T00:43:40;96599.28;;;8.93;100.00
55289;BME280;41154;45.394;5.734;2023-04-12T00:46:08;96600.28;;;8.87;100.00
55289;BME280;41154;45.394;5.734;2023-04-12T00:48:37;96602.09;;;8.81;100.00
55289;BME280;41154;45.394;5.734;2023-04-12T00:51:05;96584.94;;;8.77;100.00
55289;BME280;41154;45.394;5.734;2023-04-12T00:53:32;96581.25;;;8.84;100.00
55289;BME280;41154;45.394;5.734;2023-04-12T00:55:58;96572.66;;;8.81;100.00
55289;BME280;41154;45.394;5.734;2023-04-12T00:58:24;96570.19;;;8.75;100.00
55289;BME280;41154;45.394;5.734;2023-04-12T01:00:50;96559.03;;;8.61;100.00
55289;BME280;41154;45.394;5.734;2023-04-12T01:03:21;96543.81;;;8.61;100.00
55289;BME280;41154;45.394;5.734;2023-04-12T01:06:10;96533.50;;;8.70;100.00
55289;BME280;41154;45.394;5.734;2023-04-12T01:09:06;96540.47;;;8.71;100.00
55289;BME280;41154;45.394;5.734;2023-04-12T01:14:59;96532.38;;;8.66;100.00
55289;BME280;41154;45.394;5.734;2023-04-12T01:17:29;96525.72;;;8.47;100.00
55289;BME280;41154;45.394;5.734;2023-04-12T01:20:00;96526.38;;;8.37;100.00
55289;BME280;41154;45.394;5.734;2023-04-12T01:23:02;96521.59;;;8.39;100.00
55289;BME280;41154;45.394;5.734;2023-04-12T01:27:59;96518.72;;;8.23;100.00
55289;BME280;41154;45.394;5.734;2023-04-12T01:30:27;96508.50;;;8.59;100.00
55289;BME280;41154;45.394;5.734;2023-04-12T01:32:55;96498.81;;;8.36;100.00
55289;BME280;41154;45.394;5.734;2023-04-12T01:35:26;96503.22;;;8.25;100.00
55289;BME280;41154;45.394;5.734;2023-04-12T01:37:52;96496.09;;;8.31;100.00
55289;BME280;41154;45.394;5.734;2023-04-12T01:40:19;96487.53;;;8.29;100.00
55289;BME280;41154;45.394;5.734;2023-04-12T01:42:44;96487.19;;;8.25;100.00
55289;BME280;41154;45.394;5.734;2023-04-12T01:45:10;96476.94;;;8.17;100.00
55289;BME280;41154;45.394;5.734;2023-04-12T01:47:37;96474.94;;;8.47;100.00
55289;BME280;41154;45.394;5.734;2023-04-12T01:50:22;96465.03;;;8.25;100.00
55289;BME280;41154;45.394;5.734;2023-04-12T01:53:25;96467.31;;;8.16;100.00
55289;BME280;41154;45.394;5.734;2023-04-12T01:55:56;96461.88;;;8.50;100.00
55289;BME280;41154;45.394;5.734;2023-04-12T01:58:23;96456.94;;;8.42;100.00
55289;BME280;41154;45.394;5.734;2023-04-12T02:00:50;96446.88;;;8.27;100.00
55289;BME280;41154;45.394;5.734;2023-04-12T02:03:19;96440.47;;;8.28;100.00
55289;BME280;41154;45.394;5.734;2023-04-12T02:05:50;96430.84;;;8.05;100.00
55289;BME280;41154;45.394;5.734;2023-04-12T02:08:19;96429.47;;;8.02;100.00
55289;BME280;41154;45.394;5.734;2023-04-12T02:10:45;96419.13;;;8.06;100.00
55289;BME280;41154;45.394;5.734;2023-04-12T02:13:14;96419.13;;;8.06;100.00
55289;BME280;41154;45.394;5.734;2023-04-12T02:15:42;96416.34;;;8.01;100.00
55289;BME280;41154;45.394;5.734;2023-04-12T02:18:09;96414.25;;;8.03;100.00
55289;BME280;41154;45.394;5.734;2023-04-12T02:20:36;96405.81;;;8.11;100.00
55289;BME280;41154;45.394;5.734;2023-04-12T02:23:02;96405.38;;;8.19;100.00
55289;BME280;41154;45.394;5.734;2023-04-12T02:25:28;96407.25;;;8.19;100.00
55289;BME280;41154;45.394;5.734;2023-04-12T02:27:54;96399.91;;;8.09;100.00
55289;BME280;41154;45.394;5.734;2023-04-12T02:30:21;96398.28;;;8.08;100.00
55289;BME280;41154;45.394;5.734;2023-04-12T02:32:51;96391.66;;;7.88;100.00
55289;BME280;41154;45.394;5.734;2023-04-12T02:35:32;96378.97;;;8.01;100.00
55289;BME280;41154;45.394;5.734;2023-04-12T02:38:06;96376.38;;;7.84;100.00
55289;BME280;41154;45.394;5.734;2023-04-12T02:40:37;96372.34;;;7.81;100.00
55289;BME280;41154;45.394;5.734;2023-04-12T02:43:06;96372.38;;;7.86;100.00
55289;BME280;41154;45.394;5.734;2023-04-12T02:45:37;96356.56;;;7.80;100.00
55289;BME280;41154;45.394;5.734;2023-04-12T02:48:03;96362.53;;;7.87;100.00
55289;BME280;41154;45.394;5.734;2023-04-12T02:50:29;96366.25;;;7.86;100.00
55289;BME280;41154;45.394;5.734;2023-04-12T02:53:07;96366.56;;;7.89;100.00
55289;BME280;41154;45.394;5.734;2023-04-12T02:55:33;96364.88;;;8.05;100.00
55289;BME280;41154;45.394;5.734;2023-04-12T02:58:03;96364.38;;;7.86;100.00
55289;BME280;41154;45.394;5.734;2023-04-12T03:00:29;96364.13;;;7.88;100.00
55289;BME280;41154;45.394;5.734;2023-04-12T03:02:59;96358.22;;;8.08;100.00
55289;BME280;41154;45.394;5.734;2023-04-12T03:05:28;96359.38;;;7.90;100.00
55289;BME280;41154;45.394;5.734;2023-04-12T03:07:55;96361.44;;;8.10;100.00
55289;BME280;41154;45.394;5.734;2023-04-12T03:10:33;96354.28;;;7.88;100.00
55289;BME280;41154;45.394;5.734;2023-04-12T03:13:01;96355.44;;;7.98;100.00
55289;BME280;41154;45.394;5.734;2023-04-12T03:15:38;96353.75;;;7.91;100.00
55289;BME280;41154;45.394;5.734;2023-04-12T03:18:04;96350.75;;;8.10;100.00
55289;BME280;41154;45.394;5.734;2023-04-12T03:20:37;96352.25;;;8.01;100.00
55289;BME280;41154;45.394;5.734;2023-04-12T03:23:08;96362.19;;;7.83;100.00
55289;BME280;41154;45.394;5.734;2023-04-12T03:25:37;96362.59;;;7.70;100.00
55289;BME280;41154;45.394;5.734;2023-04-12T03:28:21;96374.38;;;7.74;100.00
55289;BME280;41154;45.394;5.734;2023-04-12T03:30:50;96381.28;;;7.92;100.00
55289;BME280;41154;45.394;5.734;2023-04-12T03:33:19;96373.47;;;8.07;100.00
55289;BME280;41154;45.394;5.734;2023-04-12T03:35:46;96371.03;;;7.84;100.00
55289;BME280;41154;45.394;5.734;2023-04-12T03:38:13;96351.97;;;7.75;100.00
55289;BME280;41154;45.394;5.734;2023-04-12T03:40:41;96338.41;;;7.82;100.00
55289;BME280;41154;45.394;5.734;2023-04-12T03:43:07;96339.59;;;7.69;100.00
55289;BME280;41154;45.394;5.734;2023-04-12T03:45:33;96326.88;;;7.76;100.00
55289;BME280;41154;45.394;5.734;2023-04-12T03:48:01;96329.31;;;7.78;100.00
55289;BME280;41154;45.394;5.734;2023-04-12T03:50:30;96342.16;;;7.81;100.00
55289;BME280;41154;45.394;5.734;2023-04-12T03:52:56;96350.34;;;7.74;100.00
55289;BME280;41154;45.394;5.734;2023-04-12T03:55:28;96363.81;;;7.62;100.00
55289;BME280;41154;45.394;5.734;2023-04-12T03:57:54;96364.19;;;7.71;100.00
55289;BME280;41154;45.394;5.734;2023-04-12T04:00:27;96378.38;;;7.94;100.00
55289;BME280;41154;45.394;5.734;2023-04-12T04:03:05;96396.81;;;7.95;100.00
55289;BME280;41154;45.394;5.734;2023-04-12T04:05:44;96393.06;;;7.96;100.00
55289;BME280;41154;45.394;5.734;2023-04-12T04:08:12;96390.34;;;8.13;100.00
55289;BME280;41154;45.394;5.734;2023-04-12T04:10:58;96393.59;;;8.15;100.00
55289;BME280;41154;45.394;5.734;2023-04-12T04:13:30;96390.16;;;7.98;100.00
55289;BME280;41154;45.394;5.734;2023-04-12T04:16:05;96390.53;;;7.84;100.00
55289;BME280;41154;45.394;5.734;2023-04-12T04:18:32;96382.88;;;7.71;100.00
55289;BME280;41154;45.394;5.734;2023-04-12T04:21:00;96373.31;;;7.75;100.00
55289;BME280;41154;45.394;5.734;2023-04-12T04:23:39;96372.78;;;7.73;100.00
55289;BME280;41154;45.394;5.734;2023-04-12T04:26:10;96367.09;;;7.69;100.00
55289;BME280;41154;45.394;5.734;2023-04-12T04:28:43;96364.03;;;7.78;100.00
55289;BME280;41154;45.394;5.734;2023-04-12T04:31:13;96359.91;;;7.92;100.00
55289;BME280;41154;45.394;5.734;2023-04-12T04:33:42;96341.97;;;7.87;100.00
55289;BME280;41154;45.394;5.734;2023-04-12T04:36:10;96320.59;;;7.87;100.00
55289;BME280;41154;45.394;5.734;2023-04-12T04:38:42;96315.13;;;7.77;100.00
55289;BME280;41154;45.394;5.734;2023-04-12T04:41:19;96303.38;;;7.73;100.00
55289;BME280;41154;45.394;5.734;2023-04-12T04:43:57;96295.75;;;7.65;100.00
55289;BME280;41154;45.394;5.734;2023-04-12T04:46:27;96306.56;;;7.75;100.00
55289;BME280;41154;45.394;5.734;2023-04-12T04:48:55;96298.19;;;7.44;100.00
55289;BME280;41154;45.394;5.734;2023-04-12T04:51:21;96314.25;;;7.49;100.00
55289;BME280;41154;45.394;5.734;2023-04-12T04:53:47;96310.59;;;7.55;100.00
55289;BME280;41154;45.394;5.734;2023-04-12T04:56:15;96313.66;;;7.42;100.00
55289;BME280;41154;45.394;5.734;2023-04-12T04:58:43;96313.34;;;7.61;100.00
55289;BME280;41154;45.394;5.734;2023-04-12T05:01:09;96313.53;;;7.76;100.00
55289;BME280;41154;45.394;5.734;2023-04-12T05:03:38;96320.13;;;7.90;100.00
55289;BME280;41154;45.394;5.734;2023-04-12T05:06:07;96316.97;;;7.71;100.00
55289;BME280;41154;45.394;5.734;2023-04-12T05:08:34;96309.84;;;7.60;100.00
55289;BME280;41154;45.394;5.734;2023-04-12T05:11:00;96306.94;;;7.62;100.00
55289;BME280;41154;45.394;5.734;2023-04-12T05:13:28;96305.41;;;7.66;100.00
55289;BME280;41154;45.394;5.734;2023-04-12T05:15:53;96301.69;;;7.67;100.00
55289;BME280;41154;45.394;5.734;2023-04-12T05:18:20;96312.34;;;7.67;100.00
55289;BME280;41154;45.394;5.734;2023-04-12T05:20:47;96311.53;;;7.66;100.00
55289;BME280;41154;45.394;5.734;2023-04-12T05:23:14;96306.88;;;7.56;100.00
55289;BME280;41154;45.394;5.734;2023-04-12T05:25:44;96306.19;;;7.44;100.00
55289;BME280;41154;45.394;5.734;2023-04-12T05:28:13;96304.31;;;7.45;100.00
55289;BME280;41154;45.394;5.734;2023-04-12T05:30:40;96312.06;;;7.46;100.00
55289;BME280;41154;45.394;5.734;2023-04-12T05:33:07;96321.53;;;7.54;100.00
55289;BME280;41154;45.394;5.734;2023-04-12T05:35:36;96317.63;;;7.62;100.00
55289;BME280;41154;45.394;5.734;2023-04-12T05:38:02;96320.22;;;7.56;100.00
55289;BME280;41154;45.394;5.734;2023-04-12T05:40:28;96333.50;;;7.51;100.00
55289;BME280;41154;45.394;5.734;2023-04-12T05:42:57;96335.69;;;7.54;100.00
55289;BME280;41154;45.394;5.734;2023-04-12T05:45:24;96334.25;;;7.69;100.00
55289;BME280;41154;45.394;5.734;2023-04-12T05:47:50;96324.56;;;7.85;100.00
55289;BME280;41154;45.394;5.734;2023-04-12T05:50:16;96324.56;;;7.85;100.00
55289;BME280;41154;45.394;5.734;2023-04-12T05:52:42;96326.53;;;7.95;100.00
55289;BME280;41154;45.394;5.734;2023-04-12T05:55:08;96328.13;;;7.90;100.00
55289;BME280;41154;45.394;5.734;2023-04-12T05:57:38;96322.72;;;7.85;100.00
55289;BME280;41154;45.394;5.734;2023-04-12T06:00:04;96318.53;;;7.95;100.00
55289;BME280;41154;45.394;5.734;2023-04-12T06:02:43;96313.16;;;7.89;100.00
55289;BME280;41154;45.394;5.734;2023-04-12T06:05:10;96327.38;;;7.95;100.00
55289;BME280;41154;45.394;5.734;2023-04-12T06:07:37;96331.88;;;7.95;100.00
55289;BME280;41154;45.394;5.734;2023-04-12T06:10:05;96327.66;;;7.99;100.00
55289;BME280;41154;45.394;5.734;2023-04-12T06:12:31;96335.72;;;8.04;100.00
55289;BME280;41154;45.394;5.734;2023-04-12T06:14:57;96325.13;;;8.09;100.00
55289;BME280;41154;45.394;5.734;2023-04-12T06:17:24;96324.97;;;8.21;100.00
55289;BME280;41154;45.394;5.734;2023-04-12T06:19:50;96329.81;;;8.24;100.00
55289;BME280;41154;45.394;5.734;2023-04-12T06:22:15;96331.66;;;8.45;100.00
55289;BME280;41154;45.394;5.734;2023-04-12T06:24:42;96335.59;;;8.43;100.00
55289;BME280;41154;45.394;5.734;2023-04-12T06:27:09;96336.34;;;8.60;100.00
55289;BME280;41154;45.394;5.734;2023-04-12T06:29:36;96350.56;;;8.66;100.00
55289;BME280;41154;45.394;5.734;2023-04-12T06:32:02;96353.09;;;9.10;100.00
55289;BME280;41154;45.394;5.734;2023-04-12T06:34:28;96352.44;;;9.35;100.00
55289;BME280;41154;45.394;5.734;2023-04-12T06:36:59;96369.56;;;9.34;100.00
55289;BME280;41154;45.394;5.734;2023-04-12T06:39:25;96372.63;;;9.16;100.00
55289;BME280;41154;45.394;5.734;2023-04-12T06:41:51;96370.44;;;9.08;100.00
55289;BME280;41154;45.394;5.734;2023-04-12T06:44:20;96357.31;;;9.49;100.00
55289;BME280;41154;45.394;5.734;2023-04-12T06:46:46;96357.88;;;9.46;100.00
55289;BME280;41154;45.394;5.734;2023-04-12T06:49:11;96350.78;;;9.29;100.00
55289;BME280;41154;45.394;5.734;2023-04-12T06:51:37;96355.19;;;9.46;100.00
55289;BME280;41154;45.394;5.734;2023-04-12T06:54:03;96341.88;;;9.61;100.00
55289;BME280;41154;45.394;5.734;2023-04-12T06:56:28;96346.09;;;9.52;100.00
55289;BME280;41154;45.394;5.734;2023-04-12T06:58:55;96343.25;;;9.21;100.00
55289;BME280;41154;45.394;5.734;2023-04-12T07:01:20;96337.53;;;9.07;100.00
55289;BME280;41154;45.394;5.734;2023-04-12T07:03:46;96327.75;;;8.86;100.00
55289;BME280;41154;45.394;5.734;2023-04-12T07:06:12;96325.66;;;8.93;100.00
55289;BME280;41154;45.394;5.734;2023-04-12T07:08:39;96328.16;;;9.05;100.00
55289;BME280;41154;45.394;5.734;2023-04-12T07:11:05;96315.66;;;9.15;100.00
55289;BME280;41154;45.394;5.734;2023-04-12T07:13:30;96325.00;;;9.13;100.00
55289;BME280;41154;45.394;5.734;2023-04-12T07:15:56;96314.78;;;9.10;100.00
55289;BME280;41154;45.394;5.734;2023-04-12T07:18:25;96330.50;;;9.39;100.00
55289;BME280;41154;45.394;5.734;2023-04-12T07:20:53;96329.19;;;9.41;100.00
55289;BME280;41154;45.394;5.734;2023-04-12T07:23:19;96323.63;;;9.48;100.00
55289;BME280;41154;45.394;5.734;2023-04-12T07:25:45;96320.31;;;9.35;100.00
55289;BME280;41154;45.394;5.734;2023-04-12T07:28:11;96314.13;;;9.30;100.00
55289;BME280;41154;45.394;5.734;2023-04-12T07:30:40;96309.09;;;9.39;100.00
55289;BME280;41154;45.394;5.734;2023-04-12T07:33:06;96306.16;;;9.40;100.00
55289;BME280;41154;45.394;5.734;2023-04-12T07:35:32;96308.09;;;9.50;100.00
55289;BME280;41154;45.394;5.734;2023-04-12T07:37:58;96307.06;;;9.61;100.00
55289;BME280;41154;45.394;5.734;2023-04-12T07:40:25;96300.66;;;9.62;100.00
55289;BME280;41154;45.394;5.734;2023-04-12T07:42:51;96289.16;;;9.67;100.00
55289;BME280;41154;45.394;5.734;2023-04-12T07:45:18;96296.69;;;9.75;100.00
55289;BME280;41154;45.394;5.734;2023-04-12T07:47:44;96312.84;;;9.96;100.00
55289;BME280;41154;45.394;5.734;2023-04-12T07:50:10;96317.38;;;9.95;100.00
55289;BME280;41154;45.394;5.734;2023-04-12T07:52:38;96328.94;;;10.11;100.00
55289;BME280;41154;45.394;5.734;2023-04-12T07:55:04;96328.09;;;9.90;100.00
55289;BME280;41154;45.394;5.734;2023-04-12T07:57:30;96328.72;;;10.18;100.00
55289;BME280;41154;45.394;5.734;2023-04-12T07:59:56;96331.97;;;10.30;100.00
55289;BME280;41154;45.394;5.734;2023-04-12T08:02:22;96321.22;;;10.25;100.00
55289;BME280;41154;45.394;5.734;2023-04-12T08:04:54;96330.66;;;10.33;100.00
55289;BME280;41154;45.394;5.734;2023-04-12T08:07:21;96335.53;;;10.67;100.00
55289;BME280;41154;45.394;5.734;2023-04-12T08:09:47;96338.72;;;10.38;100.00
55289;BME280;41154;45.394;5.734;2023-04-12T08:12:13;96338.16;;;10.36;100.00
55289;BME280;41154;45.394;5.734;2023-04-12T08:14:39;96330.94;;;10.47;100.00
55289;BME280;41154;45.394;5.734;2023-04-12T08:17:05;96335.00;;;10.54;100.00
55289;BME280;41154;45.394;5.734;2023-04-12T08:19:31;96338.50;;;10.75;100.00
55289;BME280;41154;45.394;5.734;2023-04-12T08:21:57;96329.13;;;10.99;100.00
55289;BME280;41154;45.394;5.734;2023-04-12T08:24:22;96330.44;;;11.27;100.00
55289;BME280;41154;45.394;5.734;2023-04-12T08:26:49;96314.84;;;11.39;100.00
55289;BME280;41154;45.394;5.734;2023-04-12T08:29:15;96315.50;;;11.86;100.00
55289;BME280;41154;45.394;5.734;2023-04-12T08:31:41;96313.59;;;11.92;100.00
55289;BME280;41154;45.394;5.734;2023-04-12T08:34:07;96313.66;;;11.81;100.00
55289;BME280;41154;45.394;5.734;2023-04-12T08:36:32;96317.81;;;11.32;100.00
55289;BME280;41154;45.394;5.734;2023-04-12T08:38:59;96306.25;;;11.37;100.00
55289;BME280;41154;45.394;5.734;2023-04-12T08:41:25;96312.13;;;11.49;100.00
55289;BME280;41154;45.394;5.734;2023-04-12T08:43:51;96303.25;;;11.54;100.00
55289;BME280;41154;45.394;5.734;2023-04-12T08:46:16;96315.56;;;11.71;100.00
55289;BME280;41154;45.394;5.734;2023-04-12T08:48:47;96309.19;;;11.46;100.00
55289;BME280;41154;45.394;5.734;2023-04-12T08:51:16;96308.66;;;11.44;100.00
55289;BME280;41154;45.394;5.734;2023-04-12T08:53:42;96310.66;;;11.88;100.00
55289;BME280;41154;45.394;5.734;2023-04-12T08:56:09;96302.44;;;12.69;100.00
55289;BME280;41154;45.394;5.734;2023-04-12T08:58:41;96296.38;;;12.87;100.00
55289;BME280;41154;45.394;5.734;2023-04-12T09:01:10;96295.72;;;12.27;100.00
55289;BME280;41154;45.394;5.734;2023-04-12T09:03:38;96293.03;;;12.66;100.00
55289;BME280;41154;45.394;5.734;2023-04-12T09:06:05;96300.16;;;12.86;100.00
55289;BME280;41154;45.394;5.734;2023-04-12T09:08:31;96290.94;;;12.13;100.00
55289;BME280;41154;45.394;5.734;2023-04-12T09:10:57;96291.28;;;12.81;100.00
55289;BME280;41154;45.394;5.734;2023-04-12T09:13:35;96293.91;;;12.91;100.00
55289;BME280;41154;45.394;5.734;2023-04-12T09:16:04;96293.00;;;13.01;100.00
55289;BME280;41154;45.394;5.734;2023-04-12T09:18:30;96293.44;;;13.13;100.00
55289;BME280;41154;45.394;5.734;2023-04-12T09:21:09;96286.72;;;13.45;100.00
55289;BME280;41154;45.394;5.734;2023-04-12T09:23:36;96280.59;;;13.63;100.00
55289;BME280;41154;45.394;5.734;2023-04-12T09:26:03;96299.81;;;12.93;100.00
55289;BME280;41154;45.394;5.734;2023-04-12T09:28:29;96301.94;;;12.62;100.00
55289;BME280;41154;45.394;5.734;2023-04-12T09:30:57;96293.34;;;12.94;100.00
55289;BME280;41154;45.394;5.734;2023-04-12T09:33:37;96260.84;;;13.44;100.00
55289;BME280;41154;45.394;5.734;2023-04-12T09:36:04;96254.88;;;12.93;100.00
55289;BME280;41154;45.394;5.734;2023-04-12T09:38:31;96256.56;;;12.50;100.00
55289;BME280;41154;45.394;5.734;2023-04-12T09:41:14;96260.38;;;12.78;100.00
55289;BME280;41154;45.394;5.734;2023-04-12T09:43:40;96250.63;;;12.87;100.00
55289;BME280;41154;45.394;5.734;2023-04-12T09:46:13;96255.25;;;13.11;100.00
55289;BME280;41154;45.394;5.734;2023-04-12T09:48:40;96258.06;;;13.25;100.00
55289;BME280;41154;45.394;5.734;2023-04-12T09:51:06;96267.72;;;13.02;100.00
55289;BME280;41154;45.394;5.734;2023-04-12T09:53:34;96276.38;;;13.52;100.00
55289;BME280;41154;45.394;5.734;2023-04-12T09:56:04;96254.75;;;14.00;100.00
55289;BME280;41154;45.394;5.734;2023-04-12T09:58:35;96254.63;;;14.49;100.00
55289;BME280;41154;45.394;5.734;2023-04-12T10:01:02;96246.97;;;14.56;100.00
55289;BME280;41154;45.394;5.734;2023-04-12T10:03:30;96238.41;;;14.87;100.00
55289;BME280;41154;45.394;5.734;2023-04-12T10:05:55;96230.34;;;14.68;100.00
55289;BME280;41154;45.394;5.734;2023-04-12T10:08:22;96230.47;;;14.77;100.00
55289;BME280;41154;45.394;5.734;2023-04-12T10:10:49;96222.50;;;14.85;100.00
55289;BME280;41154;45.394;5.734;2023-04-12T10:13:17;96214.91;;;15.01;100.00
55289;BME280;41154;45.394;5.734;2023-04-12T10:15:48;96203.63;;;15.13;100.00
55289;BME280;41154;45.394;5.734;2023-04-12T10:18:17;96202.19;;;14.88;100.00
55289;BME280;41154;45.394;5.734;2023-04-12T10:20:44;96203.66;;;14.80;100.00
55289;BME280;41154;45.394;5.734;2023-04-12T10:23:15;96192.91;;;14.61;100.00
55289;BME280;41154;45.394;5.734;2023-04-12T10:25:44;96190.47;;;14.79;100.00
55289;BME280;41154;45.394;5.734;2023-04-12T10:28:17;96187.22;;;15.37;100.00
55289;BME280;41154;45.394;5.734;2023-04-12T10:30:43;96189.94;;;15.37;100.00
55289;BME280;41154;45.394;5.734;2023-04-12T10:33:11;96191.31;;;15.35;100.00
55289;BME280;41154;45.394;5.734;2023-04-12T10:38:13;96188.91;;;15.33;100.00
55289;BME280;41154;45.394;5.734;2023-04-12T10:41:06;96184.88;;;14.56;100.00
55289;BME280;41154;45.394;5.734;2023-04-12T10:43:32;96172.09;;;14.95;100.00
55289;BME280;41154;45.394;5.734;2023-04-12T10:45:57;96163.00;;;15.32;100.00
55289;BME280;41154;45.394;5.734;2023-04-12T10:48:30;96163.41;;;15.12;100.00
55289;BME280;41154;45.394;5.734;2023-04-12T10:51:18;96173.91;;;14.85;100.00
55289;BME280;41154;45.394;5.734;2023-04-12T10:54:29;96163.19;;;14.94;100.00
55289;BME280;41154;45.394;5.734;2023-04-12T10:56:45;96165.72;;;15.32;100.00
55289;BME280;41154;45.394;5.734;2023-04-12T10:59:17;96165.91;;;15.50;100.00
55289;BME280;41154;45.394;5.734;2023-04-12T11:04:29;96148.59;;;15.51;100.00
55289;BME280;41154;45.394;5.734;2023-04-12T11:07:08;96143.88;;;16.07;98.11
55289;BME280;41154;45.394;5.734;2023-04-12T11:09:41;96143.34;;;15.68;96.34
55289;BME280;41154;45.394;5.734;2023-04-12T11:14:49;96123.59;;;15.81;100.00
55289;BME280;41154;45.394;5.734;2023-04-12T11:17:19;96123.94;;;15.80;100.00
55289;BME280;41154;45.394;5.734;2023-04-12T11:19:48;96117.06;;;16.19;95.69
55289;BME280;41154;45.394;5.734;2023-04-12T11:22:16;96108.44;;;17.02;98.07
55289;BME280;41154;45.394;5.734;2023-04-12T11:24:43;96100.56;;;17.32;96.47
55289;BME280;41154;45.394;5.734;2023-04-12T11:27:11;96100.78;;;16.96;89.32
55289;BME280;41154;45.394;5.734;2023-04-12T11:29:37;96093.75;;;18.13;83.44
55289;BME280;41154;45.394;5.734;2023-04-12T11:32:03;96096.69;;;16.76;87.14
55289;BME280;41154;45.394;5.734;2023-04-12T11:34:33;96092.03;;;16.67;84.22
55289;BME280;41154;45.394;5.734;2023-04-12T11:37:01;96085.78;;;17.65;82.48
55289;BME280;41154;45.394;5.734;2023-04-12T11:39:30;96078.59;;;18.21;79.50
55289;BME280;41154;45.394;5.734;2023-04-12T11:41:56;96067.75;;;17.60;81.47
55289;BME280;41154;45.394;5.734;2023-04-12T11:44:22;96071.53;;;17.24;82.02
55289;BME280;41154;45.394;5.734;2023-04-12T11:46:48;96072.22;;;17.82;81.69
55289;BME280;41154;45.394;5.734;2023-04-12T11:49:18;96059.47;;;17.91;88.11
55289;BME280;41154;45.394;5.734;2023-04-12T11:51:45;96054.84;;;17.92;80.97
55289;BME280;41154;45.394;5.734;2023-04-12T11:54:12;96043.81;;;17.71;88.27
55289;BME280;41154;45.394;5.734;2023-04-12T11:56:39;96040.28;;;17.18;87.70
55289;BME280;41154;45.394;5.734;2023-04-12T11:59:05;96039.63;;;17.21;87.70
55289;BME280;41154;45.394;5.734;2023-04-12T12:01:33;96034.88;;;17.44;87.90
55289;BME280;41154;45.394;5.734;2023-04-12T12:04:00;96039.50;;;17.52;90.13
55289;BME280;41154;45.394;5.734;2023-04-12T12:06:26;96041.41;;;17.87;92.94
55289;BME280;41154;45.394;5.734;2023-04-12T12:08:52;96030.41;;;17.83;88.24
55289;BME280;41154;45.394;5.734;2023-04-12T12:11:20;96032.78;;;17.32;86.38
55289;BME280;41154;45.394;5.734;2023-04-12T12:13:50;96039.03;;;18.03;82.73
55289;BME280;41154;45.394;5.734;2023-04-12T12:16:17;96037.59;;;17.27;85.84
55289;BME280;41154;45.394;5.734;2023-04-12T12:18:45;96038.38;;;17.62;84.00
55289;BME280;41154;45.394;5.734;2023-04-12T12:21:13;96046.88;;;17.95;85.98
55289;BME280;41154;45.394;5.734;2023-04-12T12:23:44;96035.69;;;17.45;80.13
55289;BME280;41154;45.394;5.734;2023-04-12T12:26:27;96032.31;;;17.65;80.49
55289;BME280;41154;45.394;5.734;2023-04-12T12:28:56;96026.03;;;16.95;78.90
55289;BME280;41154;45.394;5.734;2023-04-12T12:31:25;96028.13;;;16.98;80.79
55289;BME280;41154;45.394;5.734;2023-04-12T12:33:56;96024.16;;;17.21;82.83
55289;BME280;41154;45.394;5.734;2023-04-12T12:36:33;96011.44;;;17.31;83.28
55289;BME280;41154;45.394;5.734;2023-04-12T12:41:32;96003.63;;;17.20;80.38
55289;BME280;41154;45.394;5.734;2023-04-12T12:43:59;96002.16;;;16.65;75.97
55289;BME280;41154;45.394;5.734;2023-04-12T12:46:25;95998.94;;;16.46;80.39
55289;BME280;41154;45.394;5.734;2023-04-12T12:48:51;95995.63;;;16.58;79.99
55289;BME280;41154;45.394;5.734;2023-04-12T12:51:16;95997.69;;;16.52;79.94
55289;BME280;41154;45.394;5.734;2023-04-12T12:53:44;95996.00;;;16.33;83.22
55289;BME280;41154;45.394;5.734;2023-04-12T12:56:11;95993.22;;;16.47;78.02
55289;BME280;41154;45.394;5.734;2023-04-12T12:58:37;95978.47;;;16.71;80.59
55289;BME280;41154;45.394;5.734;2023-04-12T13:01:03;95979.81;;;16.11;78.51
55289;BME280;41154;45.394;5.734;2023-04-12T13:03:29;95980.84;;;16.24;84.42
55289;BME280;41154;45.394;5.734;2023-04-12T13:05:59;95980.22;;;15.95;77.95
55289;BME280;41154;45.394;5.734;2023-04-12T13:08:26;95981.78;;;16.19;77.76
55289;BME280;41154;45.394;5.734;2023-04-12T13:10:52;95965.34;;;16.15;79.87
55289;BME280;41154;45.394;5.734;2023-04-12T13:13:18;95964.94;;;16.31;80.45
55289;BME280;41154;45.394;5.734;2023-04-12T13:15:44;95956.00;;;16.22;79.41
55289;BME280;41154;45.394;5.734;2023-04-12T13:18:12;95954.53;;;16.15;80.09
55289;BME280;41154;45.394;5.734;2023-04-12T13:20:41;95944.44;;;16.30;86.57
55289;BME280;41154;45.394;5.734;2023-04-12T13:23:07;95938.50;;;16.28;78.57